sensor_id;sensor_type;location;lat;lon;timestamp;pressure;altitude;pressure_sealevel;temperature;humidity
33845;BME280;20145;43.118;25.694;2023-07-16T00:01:03;99552.88;;;25.16;74.26
33845;BME280;20145;43.118;25.694;2023-07-16T00:03:29;99556.41;;;25.17;73.85
33845;BME280;20145;43.118;25.694;2023-07-16T00:05:54;99551.41;;;25.12;73.77
33845;BME280;20145;43.118;25.694;2023-07-16T00:08:20;99558.78;;;25.07;74.34
33845;BME280;20145;43.118;25.694;2023-07-16T00:10:46;99552.06;;;25.03;74.54
33845;BME280;20145;43.118;25.694;2023-07-16T00:13:11;99554.47;;;25.06;75.07
33845;BME280;20145;43.118;25.694;2023-07-16T00:15:37;99551.72;;;25.07;74.85
33845;BME280;20145;43.118;25.694;2023-07-16T00:18:02;99552.88;;;25.03;74.17
33845;BME280;20145;43.118;25.694;2023-07-16T00:20:28;99557.34;;;25.03;74.82
33845;BME280;20145;43.118;25.694;2023-07-16T00:22:54;99553.09;;;25.00;74.56
33845;BME280;20145;43.118;25.694;2023-07-16T00:25:19;99548.88;;;24.98;74.87
33845;BME280;20145;43.118;25.694;2023-07-16T00:27:46;99557.84;;;24.95;74.66
33845;BME280;20145;43.118;25.694;2023-07-16T00:30:11;99553.72;;;24.91;75.20
33845;BME280;20145;43.118;25.694;2023-07-16T00:32:38;99536.84;;;24.81;75.00
33845;BME280;20145;43.118;25.694;2023-07-16T00:35:03;99549.00;;;24.83;75.43
33845;BME280;20145;43.118;25.694;2023-07-16T00:37:31;99544.25;;;24.76;76.26
33845;BME280;20145;43.118;25.694;2023-07-16T00:39:56;99542.97;;;24.68;75.89
33845;BME280;20145;43.118;25.694;2023-07-16T00:42:22;99538.94;;;24.63;76.29
33845;BME280;20145;43.118;25.694;2023-07-16T00:44:47;99542.63;;;24.60;77.76
33845;BME280;20145;43.118;25.694;2023-07-16T00:47:13;99535.34;;;24.51;77.25
33845;BME280;20145;43.118;25.694;2023-07-16T00:49:39;99535.06;;;24.41;77.03
33845;BME280;20145;43.118;25.694;2023-07-16T00:52:06;99540.78;;;24.35;77.36
33845;BME280;20145;43.118;25.694;2023-07-16T00:54:33;99532.97;;;24.34;77.42
33845;BME280;20145;43.118;25.694;2023-07-16T00:56:59;99542.28;;;24.39;77.66
33845;BME280;20145;43.118;25.694;2023-07-16T00:59:24;99537.41;;;24.33;77.40
33845;BME280;20145;43.118;25.694;2023-07-16T01:01:50;99518.06;;;24.20;77.51
33845;BME280;20145;43.118;25.694;2023-07-16T01:04:16;99521.75;;;24.17;77.65
33845;BME280;20145;43.118;25.694;2023-07-16T01:06:46;99533.66;;;24.10;78.19
33845;BME280;20145;43.118;25.694;2023-07-16T01:09:20;99529.00;;;24.01;78.40
33845;BME280;20145;43.118;25.694;2023-07-16T01:11:47;99526.25;;;24.02;78.81
33845;BME280;20145;43.118;25.694;2023-07-16T01:14:15;99527.41;;;23.98;78.49
33845;BME280;20145;43.118;25.694;2023-07-16T01:16:41;99512.28;;;23.88;78.67
33845;BME280;20145;43.118;25.694;2023-07-16T01:19:07;99524.81;;;23.84;79.30
33845;BME280;20145;43.118;25.694;2023-07-16T01:30:04;99517.22;;;23.79;79.08
33845;BME280;20145;43.118;25.694;2023-07-16T01:32:33;99515.31;;;23.81;79.00
33845;BME280;20145;43.118;25.694;2023-07-16T01:34:59;99512.06;;;23.78;79.30
33845;BME280;20145;43.118;25.694;2023-07-16T01:37:25;99511.31;;;23.76;79.00
33845;BME280;20145;43.118;25.694;2023-07-16T01:39:51;99511.50;;;23.73;78.61
33845;BME280;20145;43.118;25.694;2023-07-16T01:42:17;99512.22;;;23.75;79.01
33845;BME280;20145;43.118;25.694;2023-07-16T01:44:42;99516.66;;;23.74;79.09
33845;BME280;20145;43.118;25.694;2023-07-16T01:47:15;99516.66;;;23.74;79.38
33845;BME280;20145;43.118;25.694;2023-07-16T01:49:44;99513.19;;;23.74;79.21
33845;BME280;20145;43.118;25.694;2023-07-16T01:52:10;99515.22;;;23.69;79.20
33845;BME280;20145;43.118;25.694;2023-07-16T01:54:36;99507.09;;;23.59;79.11
33845;BME280;20145;43.118;25.694;2023-07-16T01:57:02;99512.75;;;23.53;79.37
33845;BME280;20145;43.118;25.694;2023-07-16T01:59:28;99513.13;;;23.47;80.06
33845;BME280;20145;43.118;25.694;2023-07-16T02:01:53;99504.03;;;23.38;79.38
33845;BME280;20145;43.118;25.694;2023-07-16T02:04:20;99512.03;;;23.36;79.59
33845;BME280;20145;43.118;25.694;2023-07-16T02:06:45;99509.88;;;23.29;79.54
33845;BME280;20145;43.118;25.694;2023-07-16T02:09:13;99518.72;;;23.28;80.58
33845;BME280;20145;43.118;25.694;2023-07-16T02:11:39;99505.94;;;23.22;80.08
33845;BME280;20145;43.118;25.694;2023-07-16T02:14:05;99504.44;;;23.18;80.37
33845;BME280;20145;43.118;25.694;2023-07-16T02:16:30;99500.41;;;23.12;81.00
33845;BME280;20145;43.118;25.694;2023-07-16T02:18:56;99499.38;;;23.14;80.69
33845;BME280;20145;43.118;25.694;2023-07-16T02:21:21;99519.09;;;23.22;80.87
33845;BME280;20145;43.118;25.694;2023-07-16T02:23:47;99517.41;;;23.21;81.12
33845;BME280;20145;43.118;25.694;2023-07-16T02:26:12;99520.69;;;23.24;80.91
33845;BME280;20145;43.118;25.694;2023-07-16T02:28:38;99505.28;;;23.18;80.07
33845;BME280;20145;43.118;25.694;2023-07-16T02:31:04;99510.84;;;23.13;81.30
33845;BME280;20145;43.118;25.694;2023-07-16T02:33:30;99504.91;;;23.10;81.10
33845;BME280;20145;43.118;25.694;2023-07-16T02:35:55;99520.78;;;23.08;80.83
33845;BME280;20145;43.118;25.694;2023-07-16T02:38:21;99517.44;;;23.06;81.13
33845;BME280;20145;43.118;25.694;2023-07-16T02:40:48;99517.53;;;23.05;81.59
33845;BME280;20145;43.118;25.694;2023-07-16T02:43:14;99516.94;;;23.00;81.34
33845;BME280;20145;43.118;25.694;2023-07-16T02:45:40;99514.94;;;22.89;81.61
33845;BME280;20145;43.118;25.694;2023-07-16T02:48:06;99516.72;;;22.88;81.95
33845;BME280;20145;43.118;25.694;2023-07-16T02:50:38;99515.13;;;22.86;81.69
33845;BME280;20145;43.118;25.694;2023-07-16T02:53:05;99516.84;;;22.87;81.98
33845;BME280;20145;43.118;25.694;2023-07-16T02:55:31;99523.97;;;22.85;82.32
33845;BME280;20145;43.118;25.694;2023-07-16T02:57:57;99524.63;;;22.88;82.18
33845;BME280;20145;43.118;25.694;2023-07-16T03:00:23;99511.19;;;22.79;82.35
33845;BME280;20145;43.118;25.694;2023-07-16T03:02:49;99502.09;;;22.70;82.45
33845;BME280;20145;43.118;25.694;2023-07-16T03:05:16;99515.44;;;22.81;82.15
33845;BME280;20145;43.118;25.694;2023-07-16T03:07:42;99516.34;;;22.80;82.97
33845;BME280;20145;43.118;25.694;2023-07-16T03:10:08;99523.50;;;22.78;83.19
33845;BME280;20145;43.118;25.694;2023-07-16T03:12:33;99526.88;;;22.80;83.10
33845;BME280;20145;43.118;25.694;2023-07-16T03:14:59;99529.16;;;22.86;82.45
33845;BME280;20145;43.118;25.694;2023-07-16T03:17:25;99530.19;;;22.84;82.80
33845;BME280;20145;43.118;25.694;2023-07-16T03:19:50;99531.88;;;22.85;83.16
33845;BME280;20145;43.118;25.694;2023-07-16T03:22:16;99524.25;;;22.80;83.56
33845;BME280;20145;43.118;25.694;2023-07-16T03:24:41;99523.41;;;22.80;82.74
33845;BME280;20145;43.118;25.694;2023-07-16T03:27:07;99539.38;;;22.91;83.03
33845;BME280;20145;43.118;25.694;2023-07-16T03:29:33;99544.41;;;22.96;82.83
33845;BME280;20145;43.118;25.694;2023-07-16T03:31:59;99538.00;;;23.00;82.93
33845;BME280;20145;43.118;25.694;2023-07-16T03:34:25;99538.69;;;23.03;82.50
33845;BME280;20145;43.118;25.694;2023-07-16T03:36:51;99533.13;;;23.08;83.25
33845;BME280;20145;43.118;25.694;2023-07-16T03:39:16;99542.16;;;23.18;82.80
33845;BME280;20145;43.118;25.694;2023-07-16T03:41:42;99554.66;;;23.29;82.66
33845;BME280;20145;43.118;25.694;2023-07-16T03:44:08;99548.81;;;23.38;82.37
33845;BME280;20145;43.118;25.694;2023-07-16T03:46:33;99542.28;;;23.44;82.10
33845;BME280;20145;43.118;25.694;2023-07-16T03:48:59;99551.69;;;23.62;82.04
33845;BME280;20145;43.118;25.694;2023-07-16T03:51:24;99552.41;;;23.78;81.37
33845;BME280;20145;43.118;25.694;2023-07-16T03:53:50;99532.25;;;23.92;80.44
33845;BME280;20145;43.118;25.694;2023-07-16T03:56:15;99551.75;;;24.29;78.61
33845;BME280;20145;43.118;25.694;2023-07-16T03:58:41;99540.72;;;24.49;76.37
33845;BME280;20145;43.118;25.694;2023-07-16T04:01:06;99550.69;;;24.84;75.51
33845;BME280;20145;43.118;25.694;2023-07-16T04:03:32;99556.88;;;25.34;73.74
33845;BME280;20145;43.118;25.694;2023-07-16T04:06:02;99559.81;;;25.79;71.42
33845;BME280;20145;43.118;25.694;2023-07-16T04:08:28;99539.47;;;26.17;69.50
33845;BME280;20145;43.118;25.694;2023-07-16T04:10:53;99560.09;;;26.71;67.21
33845;BME280;20145;43.118;25.694;2023-07-16T04:13:19;99560.84;;;27.07;66.16
33845;BME280;20145;43.118;25.694;2023-07-16T04:15:44;99565.56;;;27.48;64.28
33845;BME280;20145;43.118;25.694;2023-07-16T04:18:10;99573.84;;;27.89;63.10
33845;BME280;20145;43.118;25.694;2023-07-16T04:20:35;99574.19;;;28.28;61.77
33845;BME280;20145;43.118;25.694;2023-07-16T04:23:01;99572.22;;;28.62;60.82
33845;BME280;20145;43.118;25.694;2023-07-16T04:25:27;99577.00;;;28.89;59.85
33845;BME280;20145;43.118;25.694;2023-07-16T04:27:52;99567.66;;;29.16;58.80
33845;BME280;20145;43.118;25.694;2023-07-16T04:30:18;99582.19;;;29.52;58.12
33845;BME280;20145;43.118;25.694;2023-07-16T04:32:43;99587.91;;;29.88;57.10
33845;BME280;20145;43.118;25.694;2023-07-16T04:35:09;99585.41;;;30.15;56.29
33845;BME280;20145;43.118;25.694;2023-07-16T04:37:35;99591.44;;;30.08;57.83
33845;BME280;20145;43.118;25.694;2023-07-16T04:40:00;99591.28;;;29.99;55.79
33845;BME280;20145;43.118;25.694;2023-07-16T04:42:26;99588.75;;;30.17;55.98
33845;BME280;20145;43.118;25.694;2023-07-16T04:44:51;99585.28;;;30.36;55.89
33845;BME280;20145;43.118;25.694;2023-07-16T04:47:17;99603.19;;;30.15;56.09
33845;BME280;20145;43.118;25.694;2023-07-16T04:49:42;99598.72;;;30.06;56.15
33845;BME280;20145;43.118;25.694;2023-07-16T04:52:08;99598.31;;;30.10;56.65
33845;BME280;20145;43.118;25.694;2023-07-16T04:54:37;99594.38;;;30.14;57.80
33845;BME280;20145;43.118;25.694;2023-07-16T04:57:05;99597.19;;;30.13;57.50
33845;BME280;20145;43.118;25.694;2023-07-16T04:59:31;99593.25;;;30.17;57.03
33845;BME280;20145;43.118;25.694;2023-07-16T05:01:57;99597.09;;;30.24;56.98
33845;BME280;20145;43.118;25.694;2023-07-16T05:04:22;99596.38;;;30.22;57.33
33845;BME280;20145;43.118;25.694;2023-07-16T05:06:48;99598.19;;;30.31;56.50
33845;BME280;20145;43.118;25.694;2023-07-16T05:09:13;99589.38;;;30.40;55.88
33845;BME280;20145;43.118;25.694;2023-07-16T05:11:39;99592.72;;;30.52;55.53
33845;BME280;20145;43.118;25.694;2023-07-16T05:14:04;99597.59;;;30.66;56.65
33845;BME280;20145;43.118;25.694;2023-07-16T05:16:30;99600.13;;;30.68;57.42
33845;BME280;20145;43.118;25.694;2023-07-16T05:18:56;99607.28;;;30.48;55.93
33845;BME280;20145;43.118;25.694;2023-07-16T05:21:21;99609.00;;;30.49;55.75
33845;BME280;20145;43.118;25.694;2023-07-16T05:23:47;99608.16;;;30.49;55.68
33845;BME280;20145;43.118;25.694;2023-07-16T05:26:12;99611.38;;;30.52;55.39
33845;BME280;20145;43.118;25.694;2023-07-16T05:28:38;99612.47;;;30.59;55.71
33845;BME280;20145;43.118;25.694;2023-07-16T05:31:04;99610.22;;;30.45;56.29
33845;BME280;20145;43.118;25.694;2023-07-16T05:33:29;99617.38;;;30.44;55.88
33845;BME280;20145;43.118;25.694;2023-07-16T05:35:55;99612.34;;;30.32;56.17
33845;BME280;20145;43.118;25.694;2023-07-16T05:38:21;99619.22;;;30.25;56.28
33845;BME280;20145;43.118;25.694;2023-07-16T05:40:46;99615.28;;;30.29;55.85
33845;BME280;20145;43.118;25.694;2023-07-16T05:43:12;99606.75;;;30.35;57.10
33845;BME280;20145;43.118;25.694;2023-07-16T05:45:39;99607.44;;;30.37;55.87
33845;BME280;20145;43.118;25.694;2023-07-16T05:48:05;99607.44;;;30.47;56.66
33845;BME280;20145;43.118;25.694;2023-07-16T05:50:30;99607.72;;;30.63;56.31
33845;BME280;20145;43.118;25.694;2023-07-16T05:52:56;99612.91;;;30.55;56.14
33845;BME280;20145;43.118;25.694;2023-07-16T05:55:21;99619.06;;;30.55;56.34
33845;BME280;20145;43.118;25.694;2023-07-16T05:57:47;99620.91;;;30.55;56.90
33845;BME280;20145;43.118;25.694;2023-07-16T06:00:13;99617.53;;;30.53;56.93
33845;BME280;20145;43.118;25.694;2023-07-16T06:02:39;99622.72;;;30.44;57.00
33845;BME280;20145;43.118;25.694;2023-07-16T06:05:05;99626.66;;;30.40;57.16
33845;BME280;20145;43.118;25.694;2023-07-16T06:07:31;99607.88;;;30.52;57.08
33845;BME280;20145;43.118;25.694;2023-07-16T06:09:58;99608.41;;;30.45;56.77
33845;BME280;20145;43.118;25.694;2023-07-16T06:12:23;99614.59;;;30.46;56.27
33845;BME280;20145;43.118;25.694;2023-07-16T06:14:50;99618.34;;;30.53;56.44
33845;BME280;20145;43.118;25.694;2023-07-16T06:17:16;99616.81;;;30.60;55.92
33845;BME280;20145;43.118;25.694;2023-07-16T06:19:42;99619.03;;;30.65;56.72
33845;BME280;20145;43.118;25.694;2023-07-16T06:22:08;99615.09;;;30.79;55.33
33845;BME280;20145;43.118;25.694;2023-07-16T06:24:36;99618.63;;;30.89;54.68
33845;BME280;20145;43.118;25.694;2023-07-16T06:27:02;99616.06;;;31.07;55.11
33845;BME280;20145;43.118;25.694;2023-07-16T06:29:28;99628.03;;;31.30;55.22
33845;BME280;20145;43.118;25.694;2023-07-16T06:31:58;99617.09;;;31.33;53.81
33845;BME280;20145;43.118;25.694;2023-07-16T06:34:24;99620.19;;;31.39;54.13
33845;BME280;20145;43.118;25.694;2023-07-16T06:36:51;99628.19;;;31.39;54.04
33845;BME280;20145;43.118;25.694;2023-07-16T06:39:16;99622.31;;;31.25;53.58
33845;BME280;20145;43.118;25.694;2023-07-16T06:41:42;99628.53;;;31.06;55.29
33845;BME280;20145;43.118;25.694;2023-07-16T06:44:08;99622.94;;;31.09;54.73
33845;BME280;20145;43.118;25.694;2023-07-16T06:46:33;99615.00;;;31.27;55.56
33845;BME280;20145;43.118;25.694;2023-07-16T06:48:59;99601.38;;;31.30;56.38
33845;BME280;20145;43.118;25.694;2023-07-16T06:51:24;99623.66;;;31.49;54.91
33845;BME280;20145;43.118;25.694;2023-07-16T06:53:50;99607.88;;;31.55;54.61
33845;BME280;20145;43.118;25.694;2023-07-16T06:56:16;99606.84;;;31.66;53.42
33845;BME280;20145;43.118;25.694;2023-07-16T06:58:42;99617.31;;;31.77;54.55
33845;BME280;20145;43.118;25.694;2023-07-16T07:01:07;99599.59;;;31.59;53.62
33845;BME280;20145;43.118;25.694;2023-07-16T07:03:33;99614.72;;;31.68;53.33
33845;BME280;20145;43.118;25.694;2023-07-16T07:06:02;99613.09;;;31.57;54.15
33845;BME280;20145;43.118;25.694;2023-07-16T07:08:29;99608.81;;;31.64;54.71
33845;BME280;20145;43.118;25.694;2023-07-16T07:10:54;99606.03;;;31.84;54.64
33845;BME280;20145;43.118;25.694;2023-07-16T07:13:20;99614.13;;;32.02;53.81
33845;BME280;20145;43.118;25.694;2023-07-16T07:15:45;99609.91;;;31.99;53.07
33845;BME280;20145;43.118;25.694;2023-07-16T07:18:11;99619.84;;;32.07;53.38
33845;BME280;20145;43.118;25.694;2023-07-16T07:20:36;99621.34;;;32.09;53.59
33845;BME280;20145;43.118;25.694;2023-07-16T07:23:03;99607.63;;;32.04;53.38
33845;BME280;20145;43.118;25.694;2023-07-16T07:25:30;99618.75;;;32.17;53.02
33845;BME280;20145;43.118;25.694;2023-07-16T07:27:56;99613.66;;;32.24;52.51
33845;BME280;20145;43.118;25.694;2023-07-16T07:30:21;99621.44;;;32.35;52.20
33845;BME280;20145;43.118;25.694;2023-07-16T07:32:47;99619.91;;;32.51;52.27
33845;BME280;20145;43.118;25.694;2023-07-16T07:35:12;99616.59;;;32.75;52.41
33845;BME280;20145;43.118;25.694;2023-07-16T07:37:38;99611.00;;;32.86;52.01
33845;BME280;20145;43.118;25.694;2023-07-16T07:40:04;99614.00;;;33.01;48.26
33845;BME280;20145;43.118;25.694;2023-07-16T07:42:29;99613.81;;;33.02;48.58
33845;BME280;20145;43.118;25.694;2023-07-16T07:44:55;99614.91;;;33.18;47.56
33845;BME280;20145;43.118;25.694;2023-07-16T07:47:21;99614.47;;;33.30;47.71
33845;BME280;20145;43.118;25.694;2023-07-16T07:49:46;99612.75;;;33.21;48.89
33845;BME280;20145;43.118;25.694;2023-07-16T07:52:12;99612.31;;;32.82;49.20
33845;BME280;20145;43.118;25.694;2023-07-16T07:54:37;99600.63;;;32.83;51.42
33845;BME280;20145;43.118;25.694;2023-07-16T07:57:06;99612.00;;;32.85;49.46
33845;BME280;20145;43.118;25.694;2023-07-16T07:59:32;99614.31;;;32.80;50.74
33845;BME280;20145;43.118;25.694;2023-07-16T08:01:58;99617.03;;;32.88;50.85
33845;BME280;20145;43.118;25.694;2023-07-16T08:04:24;99609.38;;;32.93;49.70
33845;BME280;20145;43.118;25.694;2023-07-16T08:06:50;99619.69;;;33.06;50.66
33845;BME280;20145;43.118;25.694;2023-07-16T08:09:17;99607.22;;;33.15;49.72
33845;BME280;20145;43.118;25.694;2023-07-16T08:11:42;99617.47;;;33.27;48.95
33845;BME280;20145;43.118;25.694;2023-07-16T08:14:08;99617.41;;;32.93;49.48
33845;BME280;20145;43.118;25.694;2023-07-16T08:16:33;99607.47;;;33.03;49.57
33845;BME280;20145;43.118;25.694;2023-07-16T08:18:59;99610.22;;;33.20;49.10
33845;BME280;20145;43.118;25.694;2023-07-16T08:21:25;99612.09;;;33.27;48.54
33845;BME280;20145;43.118;25.694;2023-07-16T08:23:50;99613.75;;;33.20;47.50
33845;BME280;20145;43.118;25.694;2023-07-16T08:26:17;99603.84;;;33.13;47.90
33845;BME280;20145;43.118;25.694;2023-07-16T08:28:43;99611.56;;;33.16;49.57
33845;BME280;20145;43.118;25.694;2023-07-16T08:31:10;99618.66;;;33.33;48.85
33845;BME280;20145;43.118;25.694;2023-07-16T08:33:36;99611.72;;;33.48;47.81
33845;BME280;20145;43.118;25.694;2023-07-16T08:36:01;99625.00;;;33.66;48.14
33845;BME280;20145;43.118;25.694;2023-07-16T08:38:27;99619.19;;;33.71;47.89
33845;BME280;20145;43.118;25.694;2023-07-16T08:40:53;99613.19;;;33.77;48.81
33845;BME280;20145;43.118;25.694;2023-07-16T08:43:18;99622.88;;;33.78;47.14
33845;BME280;20145;43.118;25.694;2023-07-16T08:45:46;99624.91;;;33.84;46.66
33845;BME280;20145;43.118;25.694;2023-07-16T08:48:14;99617.50;;;33.70;47.33
33845;BME280;20145;43.118;25.694;2023-07-16T08:50:40;99628.09;;;33.88;47.79
33845;BME280;20145;43.118;25.694;2023-07-16T08:53:08;99627.78;;;33.99;46.25
33845;BME280;20145;43.118;25.694;2023-07-16T08:55:34;99628.19;;;34.12;46.31
33845;BME280;20145;43.118;25.694;2023-07-16T08:58:02;99633.38;;;34.22;45.25
33845;BME280;20145;43.118;25.694;2023-07-16T09:00:28;99622.00;;;34.20;43.79
33845;BME280;20145;43.118;25.694;2023-07-16T09:02:55;99622.31;;;34.17;45.31
33845;BME280;20145;43.118;25.694;2023-07-16T09:05:21;99621.34;;;34.18;46.05
33845;BME280;20145;43.118;25.694;2023-07-16T09:07:47;99631.25;;;34.34;46.83
33845;BME280;20145;43.118;25.694;2023-07-16T09:10:13;99619.50;;;34.27;44.83
33845;BME280;20145;43.118;25.694;2023-07-16T09:12:46;99629.41;;;34.42;45.07
33845;BME280;20145;43.118;25.694;2023-07-16T09:15:16;99621.50;;;34.41;45.75
33845;BME280;20145;43.118;25.694;2023-07-16T09:17:41;99617.69;;;34.60;45.93
33845;BME280;20145;43.118;25.694;2023-07-16T09:20:08;99623.03;;;34.84;43.62
33845;BME280;20145;43.118;25.694;2023-07-16T09:22:34;99616.97;;;34.91;42.68
33845;BME280;20145;43.118;25.694;2023-07-16T09:25:03;99610.47;;;34.77;44.79
33845;BME280;20145;43.118;25.694;2023-07-16T09:27:31;99607.63;;;34.78;46.48
33845;BME280;20145;43.118;25.694;2023-07-16T09:29:57;99618.66;;;34.92;46.10
33845;BME280;20145;43.118;25.694;2023-07-16T09:32:36;99617.66;;;34.84;44.31
33845;BME280;20145;43.118;25.694;2023-07-16T09:35:12;99610.78;;;34.98;44.07
33845;BME280;20145;43.118;25.694;2023-07-16T09:37:38;99609.78;;;34.91;42.53
33845;BME280;20145;43.118;25.694;2023-07-16T09:40:08;99613.97;;;34.85;44.28
33845;BME280;20145;43.118;25.694;2023-07-16T09:42:41;99612.81;;;34.63;44.40
33845;BME280;20145;43.118;25.694;2023-07-16T09:45:13;99602.28;;;34.78;45.87
33845;BME280;20145;43.118;25.694;2023-07-16T09:47:42;99599.53;;;34.95;45.04
33845;BME280;20145;43.118;25.694;2023-07-16T09:50:08;99598.88;;;35.01;44.35
33845;BME280;20145;43.118;25.694;2023-07-16T09:52:34;99603.56;;;34.99;44.12
33845;BME280;20145;43.118;25.694;2023-07-16T09:55:01;99590.31;;;34.89;45.65
33845;BME280;20145;43.118;25.694;2023-07-16T09:57:32;99597.88;;;34.94;43.74
33845;BME280;20145;43.118;25.694;2023-07-16T10:00:00;99601.25;;;34.47;44.23
33845;BME280;20145;43.118;25.694;2023-07-16T10:02:33;99598.16;;;33.92;45.17
33845;BME280;20145;43.118;25.694;2023-07-16T10:04:58;99573.03;;;33.85;45.13
33845;BME280;20145;43.118;25.694;2023-07-16T10:07:24;99587.19;;;34.20;45.89
33845;BME280;20145;43.118;25.694;2023-07-16T10:09:56;99580.47;;;34.49;45.98
33845;BME280;20145;43.118;25.694;2023-07-16T10:12:26;99589.00;;;34.44;43.29
33845;BME280;20145;43.118;25.694;2023-07-16T10:14:53;99581.16;;;34.42;43.50
33845;BME280;20145;43.118;25.694;2023-07-16T10:17:23;99576.13;;;34.56;44.94
33845;BME280;20145;43.118;25.694;2023-07-16T10:20:06;99588.19;;;34.68;43.75
33845;BME280;20145;43.118;25.694;2023-07-16T10:22:41;99579.66;;;34.48;42.76
33845;BME280;20145;43.118;25.694;2023-07-16T10:27:50;99587.00;;;34.54;43.97
33845;BME280;20145;43.118;25.694;2023-07-16T10:30:16;99573.63;;;34.62;41.91
33845;BME280;20145;43.118;25.694;2023-07-16T10:32:43;99580.97;;;34.44;41.50
33845;BME280;20145;43.118;25.694;2023-07-16T10:35:09;99578.47;;;34.10;41.22
33845;BME280;20145;43.118;25.694;2023-07-16T10:37:36;99586.19;;;34.29;44.72
33845;BME280;20145;43.118;25.694;2023-07-16T10:40:03;99569.06;;;34.55;45.89
33845;BME280;20145;43.118;25.694;2023-07-16T10:42:29;99572.78;;;34.46;40.49
33845;BME280;20145;43.118;25.694;2023-07-16T10:44:58;99566.25;;;34.32;44.41
33845;BME280;20145;43.118;25.694;2023-07-16T10:47:29;99570.63;;;34.57;44.77
33845;BME280;20145;43.118;25.694;2023-07-16T10:49:54;99567.22;;;34.55;41.73
33845;BME280;20145;43.118;25.694;2023-07-16T10:52:21;99574.47;;;34.63;42.59
33845;BME280;20145;43.118;25.694;2023-07-16T10:54:47;99575.47;;;34.37;41.34
33845;BME280;20145;43.118;25.694;2023-07-16T10:57:15;99566.91;;;34.09;40.68
33845;BME280;20145;43.118;25.694;2023-07-16T10:59:42;99575.28;;;34.14;42.09
33845;BME280;20145;43.118;25.694;2023-07-16T11:02:12;99568.59;;;34.18;42.63
33845;BME280;20145;43.118;25.694;2023-07-16T11:04:39;99558.22;;;34.24;40.42
33845;BME280;20145;43.118;25.694;2023-07-16T11:07:06;99549.16;;;34.16;42.26
33845;BME280;20145;43.118;25.694;2023-07-16T11:09:34;99562.41;;;34.51;41.45
33845;BME280;20145;43.118;25.694;2023-07-16T11:12:12;99564.88;;;34.85;42.24
33845;BME280;20145;43.118;25.694;2023-07-16T11:14:48;99565.66;;;35.10;41.86
33845;BME280;20145;43.118;25.694;2023-07-16T11:17:15;99560.41;;;35.25;41.66
33845;BME280;20145;43.118;25.694;2023-07-16T11:19:44;99562.91;;;35.26;39.61
33845;BME280;20145;43.118;25.694;2023-07-16T11:22:10;99561.13;;;35.11;39.84
33845;BME280;20145;43.118;25.694;2023-07-16T11:24:49;99557.31;;;34.89;38.01
33845;BME280;20145;43.118;25.694;2023-07-16T11:27:19;99555.13;;;35.00;38.17
33845;BME280;20145;43.118;25.694;2023-07-16T11:29:49;99550.50;;;35.34;38.25
33845;BME280;20145;43.118;25.694;2023-07-16T11:32:46;99539.22;;;35.38;39.89
33845;BME280;20145;43.118;25.694;2023-07-16T11:35:21;99547.72;;;35.42;39.21
33845;BME280;20145;43.118;25.694;2023-07-16T11:37:47;99552.50;;;35.32;40.31
33845;BME280;20145;43.118;25.694;2023-07-16T11:40:18;99543.78;;;35.29;40.81
33845;BME280;20145;43.118;25.694;2023-07-16T11:42:43;99540.31;;;35.21;39.92
33845;BME280;20145;43.118;25.694;2023-07-16T11:47:42;99548.44;;;34.80;38.03
33845;BME280;20145;43.118;25.694;2023-07-16T11:50:08;99542.75;;;34.75;38.81
33845;BME280;20145;43.118;25.694;2023-07-16T11:52:34;99529.66;;;34.88;39.32
33845;BME280;20145;43.118;25.694;2023-07-16T11:54:59;99531.97;;;35.07;39.74
33845;BME280;20145;43.118;25.694;2023-07-16T11:57:25;99533.44;;;35.18;40.46
33845;BME280;20145;43.118;25.694;2023-07-16T11:59:51;99540.63;;;35.26;41.21
33845;BME280;20145;43.118;25.694;2023-07-16T12:02:17;99534.72;;;35.30;40.57
33845;BME280;20145;43.118;25.694;2023-07-16T12:04:43;99541.44;;;35.26;38.58
33845;BME280;20145;43.118;25.694;2023-07-16T12:07:09;99541.13;;;35.21;38.73
33845;BME280;20145;43.118;25.694;2023-07-16T12:09:34;99546.78;;;35.35;39.01
33845;BME280;20145;43.118;25.694;2023-07-16T12:12:00;99550.88;;;35.14;37.71
33845;BME280;20145;43.118;25.694;2023-07-16T12:14:26;99553.91;;;35.11;37.88
33845;BME280;20145;43.118;25.694;2023-07-16T12:16:52;99541.53;;;35.10;38.24
33845;BME280;20145;43.118;25.694;2023-07-16T12:19:18;99540.66;;;35.18;36.96
33845;BME280;20145;43.118;25.694;2023-07-16T12:21:43;99536.16;;;35.41;38.91
33845;BME280;20145;43.118;25.694;2023-07-16T12:24:09;99546.78;;;35.35;38.70
33845;BME280;20145;43.118;25.694;2023-07-16T12:26:35;99542.19;;;35.04;37.92
33845;BME280;20145;43.118;25.694;2023-07-16T12:29:01;99537.91;;;34.86;38.19
33845;BME280;20145;43.118;25.694;2023-07-16T12:31:33;99535.88;;;34.80;38.71
33845;BME280;20145;43.118;25.694;2023-07-16T12:34:02;99538.16;;;35.00;37.95
33845;BME280;20145;43.118;25.694;2023-07-16T12:36:28;99546.06;;;34.93;38.12
33845;BME280;20145;43.118;25.694;2023-07-16T12:38:53;99545.84;;;35.11;38.42
33845;BME280;20145;43.118;25.694;2023-07-16T12:41:19;99536.91;;;35.27;37.66
33845;BME280;20145;43.118;25.694;2023-07-16T12:43:46;99535.09;;;35.19;38.62
33845;BME280;20145;43.118;25.694;2023-07-16T12:46:11;99537.75;;;35.27;37.66
33845;BME280;20145;43.118;25.694;2023-07-16T12:48:37;99533.13;;;35.44;39.66
33845;BME280;20145;43.118;25.694;2023-07-16T12:51:02;99538.78;;;35.58;38.44
33845;BME280;20145;43.118;25.694;2023-07-16T12:53:28;99528.06;;;35.58;37.57
33845;BME280;20145;43.118;25.694;2023-07-16T12:55:54;99535.91;;;35.67;37.60
33845;BME280;20145;43.118;25.694;2023-07-16T12:58:20;99529.22;;;35.55;37.54
33845;BME280;20145;43.118;25.694;2023-07-16T13:00:45;99527.34;;;35.56;37.92